createdAt,value
2022-12-23T00:00:41.705Z,101115.53
2022-12-23T00:03:09.252Z,101122.84
2022-12-23T00:05:40.801Z,101114.00
2022-12-23T00:08:08.137Z,101122.50
2022-12-23T00:10:39.081Z,101103.09
2022-12-23T00:13:25.300Z,101125.16
2022-12-23T00:16:20.956Z,101068.41
2022-12-23T00:18:48.135Z,101103.91
2022-12-23T00:21:17.558Z,101112.41
2022-12-23T00:23:48.305Z,101103.81
2022-12-23T00:26:27.249Z,101109.06
2022-12-23T00:28:58.201Z,101102.34
2022-12-23T00:31:25.597Z,101093.94
2022-12-23T00:33:54.452Z,101103.91
2022-12-23T00:36:27.878Z,101101.63
2022-12-23T00:39:17.778Z,101091.91
2022-12-23T00:42:04.475Z,101098.38
2022-12-23T00:44:32.359Z,101105.47
2022-12-23T00:46:59.479Z,101084.44
2022-12-23T00:49:44.817Z,101091.03
2022-12-23T00:52:18.277Z,101094.88
2022-12-23T00:54:45.378Z,101084.69
2022-12-23T00:57:12.688Z,101091.63
2022-12-23T00:59:39.821Z,101086.97
2022-12-23T01:02:26.075Z,101087.53
2022-12-23T01:05:11.739Z,101075.91
2022-12-23T01:07:39.288Z,101074.47
2022-12-23T01:10:06.552Z,101086.19
2022-12-23T01:12:33.560Z,101080.88
2022-12-23T01:15:00.706Z,101069.13
2022-12-23T01:17:27.985Z,101081.69
2022-12-23T01:19:55.421Z,101095.31
2022-12-23T01:22:22.667Z,101084.91
2022-12-23T01:24:49.872Z,101073.97
2022-12-23T01:27:17.021Z,101068.09
2022-12-23T01:29:44.061Z,101070.75
2022-12-23T01:32:11.137Z,101068.00
2022-12-23T01:34:38.219Z,101080.84
2022-12-23T01:37:05.871Z,101077.13
2022-12-23T01:39:33.009Z,101060.50
2022-12-23T01:42:18.751Z,101059.44
2022-12-23T01:45:01.157Z,101066.03
2022-12-23T01:47:34.149Z,101073.94
2022-12-23T01:50:12.228Z,101063.13
2022-12-23T01:53:06.997Z,101064.81
2022-12-23T01:56:05.216Z,101055.63
2022-12-23T01:58:34.550Z,101058.38
2022-12-23T02:01:20.678Z,101052.50
2022-12-23T02:03:50.839Z,101044.59
2022-12-23T02:07:09.445Z,101059.66
2022-12-23T02:09:39.021Z,101060.59
2022-12-23T02:12:15.627Z,101053.03
2022-12-23T02:15:28.931Z,101055.53
2022-12-23T02:17:58.955Z,101054.81
2022-12-23T02:20:47.376Z,101053.72
2022-12-23T02:23:45.459Z,101046.44
2022-12-23T02:26:27.784Z,101050.34
2022-12-23T02:29:33.443Z,101045.44
2022-12-23T02:32:14.852Z,101028.78
2022-12-23T02:34:51.161Z,101043.16
2022-12-23T02:37:51.575Z,101041.38
2022-12-23T02:40:24.620Z,101041.72
2022-12-23T02:42:58.810Z,101030.22
2022-12-23T02:45:40.010Z,101026.72
2022-12-23T02:48:16.182Z,101024.59
2022-12-23T02:50:45.544Z,101031.53
2022-12-23T02:53:29.637Z,101027.47
2022-12-23T02:55:59.407Z,101021.72
2022-12-23T02:58:32.812Z,101027.31
2022-12-23T03:01:02.559Z,101023.22
2022-12-23T03:03:29.710Z,101016.50
2022-12-23T03:05:57.128Z,101018.28
2022-12-23T03:08:31.882Z,101020.28
2022-12-23T03:11:04.622Z,101016.31
2022-12-23T03:13:59.856Z,101014.88
2022-12-23T03:16:29.195Z,101016.97
2022-12-23T03:19:26.411Z,101026.69
2022-12-23T03:22:01.405Z,101012.72
2022-12-23T03:24:53.753Z,101025.88
2022-12-23T03:28:00.156Z,101018.53
2022-12-23T03:30:29.773Z,101006.03
2022-12-23T03:33:12.874Z,101018.69
2022-12-23T03:35:49.278Z,101023.19
2022-12-23T03:38:19.328Z,101010.53
2022-12-23T03:40:53.214Z,101010.75
2022-12-23T03:43:26.142Z,101005.09
2022-12-23T03:45:59.480Z,101014.78
2022-12-23T03:48:52.230Z,101011.59
2022-12-23T03:51:45.498Z,101018.09
2022-12-23T03:54:18.431Z,101020.69
2022-12-23T03:57:01.643Z,101017.31
2022-12-23T03:59:43.113Z,101016.63
2022-12-23T04:02:47.515Z,101026.00
2022-12-23T04:05:20.819Z,101025.44
2022-12-23T04:08:22.823Z,101018.66
2022-12-23T04:10:50.799Z,101017.06
2022-12-23T04:13:18.232Z,101017.06
2022-12-23T04:15:45.725Z,101000.19
2022-12-23T04:18:13.413Z,101010.28
2022-12-23T04:20:40.581Z,101012.50
2022-12-23T04:23:07.926Z,101008.22
2022-12-23T04:25:35.039Z,100991.34
2022-12-23T04:28:02.196Z,100995.72
2022-12-23T04:30:33.933Z,100999.44
2022-12-23T04:33:02.183Z,101012.88
2022-12-23T04:35:30.301Z,101015.78
2022-12-23T04:37:57.560Z,101014.94
2022-12-23T04:40:24.624Z,101012.44
2022-12-23T04:42:52.340Z,101013.50
2022-12-23T04:45:19.621Z,101010.59
2022-12-23T04:47:46.835Z,101012.50
2022-12-23T04:50:15.668Z,101008.38
2022-12-23T04:52:44.208Z,101021.91
2022-12-23T04:55:11.643Z,101031.00
2022-12-23T04:57:40.220Z,101021.53
2022-12-23T05:00:08.202Z,101025.94
2022-12-23T05:02:35.335Z,101033.75
2022-12-23T05:05:02.625Z,101024.50
2022-12-23T05:07:30.250Z,101021.97
2022-12-23T05:10:02.008Z,101031.06
2022-12-23T05:12:31.001Z,101038.25
2022-12-23T05:14:58.059Z,101020.28
2022-12-23T05:17:25.195Z,101031.22
2022-12-23T05:19:52.649Z,101028.00
2022-12-23T05:22:19.695Z,101019.00
2022-12-23T05:24:47.112Z,101015.19
2022-12-23T05:27:14.446Z,101021.91
2022-12-23T05:29:41.625Z,101027.75
2022-12-23T05:32:09.283Z,101035.34
2022-12-23T05:34:36.549Z,101031.97
2022-12-23T05:37:03.779Z,100999.44
2022-12-23T05:39:31.011Z,101027.31
2022-12-23T05:41:58.379Z,101025.63
2022-12-23T05:44:25.506Z,101017.53
2022-12-23T05:46:52.774Z,101011.66
2022-12-23T05:49:19.869Z,101023.59
2022-12-23T05:51:46.937Z,101028.97
2022-12-23T05:54:14.567Z,101015.94
2022-12-23T05:56:41.639Z,101022.88
2022-12-23T05:59:09.323Z,101026.22
2022-12-23T06:01:36.418Z,101014.72
2022-12-23T06:04:04.004Z,101013.03
2022-12-23T06:06:31.190Z,101022.66
2022-12-23T06:09:00.163Z,101017.38
2022-12-23T06:11:28.177Z,101023.66
2022-12-23T06:13:55.449Z,101010.13
2022-12-23T06:16:23.109Z,101030.75
2022-12-23T06:18:55.658Z,101026.47
2022-12-23T06:21:22.881Z,101017.50
2022-12-23T06:23:50.047Z,101017.13
2022-12-23T06:26:17.225Z,101022.28
2022-12-23T06:28:44.767Z,101014.25
2022-12-23T06:31:11.825Z,101018.00
2022-12-23T06:33:38.909Z,101004.09
2022-12-23T06:36:06.893Z,100999.56
2022-12-23T06:38:34.008Z,101014.56
2022-12-23T06:41:01.139Z,101007.66
2022-12-23T06:43:28.200Z,100999.97
2022-12-23T06:45:55.564Z,100999.28
2022-12-23T06:48:22.733Z,101001.22
2022-12-23T06:50:49.892Z,101015.38
2022-12-23T06:53:16.997Z,101001.00
2022-12-23T06:55:45.248Z,100993.34
2022-12-23T06:58:12.428Z,100994.44
2022-12-23T07:00:39.522Z,101001.53
2022-12-23T07:03:07.026Z,100990.97
2022-12-23T07:05:37.611Z,100995.53
2022-12-23T07:08:05.890Z,101004.63
2022-12-23T07:10:34.291Z,100997.94
2022-12-23T07:13:01.722Z,101004.75
2022-12-23T07:15:28.910Z,100993.63
2022-12-23T07:17:56.093Z,100999.38
2022-12-23T07:20:23.124Z,100985.34
2022-12-23T07:22:53.498Z,100977.19
2022-12-23T07:25:20.775Z,100970.94
2022-12-23T07:27:47.986Z,100968.66
2022-12-23T07:30:15.366Z,100973.03
2022-12-23T07:32:42.489Z,100965.19
2022-12-23T07:35:09.987Z,100960.81
2022-12-23T07:37:39.346Z,100969.13
2022-12-23T07:40:08.939Z,100951.50
2022-12-23T07:42:46.106Z,100955.25
2022-12-23T07:45:13.925Z,100961.31
2022-12-23T07:47:41.908Z,100949.69
2022-12-23T07:50:09.625Z,100954.63
2022-12-23T07:52:36.692Z,100941.41
2022-12-23T07:55:04.162Z,100938.81
2022-12-23T07:57:37.707Z,100933.41
2022-12-23T08:00:12.481Z,100933.09
2022-12-23T08:02:39.998Z,100898.22
2022-12-23T08:05:08.101Z,100925.28
2022-12-23T08:07:35.925Z,100922.81
2022-12-23T08:10:04.232Z,100928.34
2022-12-23T08:12:31.478Z,100907.69
2022-12-23T08:14:58.583Z,100911.94
2022-12-23T08:17:30.519Z,100906.91
2022-12-23T08:19:57.798Z,100897.31
2022-12-23T08:22:25.045Z,100894.47
2022-12-23T08:24:52.910Z,100890.84
2022-12-23T08:27:19.993Z,100894.72
2022-12-23T08:29:47.080Z,100879.72
2022-12-23T08:32:14.405Z,100864.06
2022-12-23T08:34:41.621Z,100893.91
2022-12-23T08:37:09.040Z,100880.03
2022-12-23T08:39:36.390Z,100887.91
2022-12-23T08:42:04.114Z,100873.44
2022-12-23T08:44:32.930Z,100877.66
2022-12-23T08:47:00.184Z,100883.44
2022-12-23T08:49:27.303Z,100870.81
2022-12-23T08:51:54.400Z,100880.19
2022-12-23T08:54:22.343Z,100872.63
2022-12-23T08:56:49.736Z,100865.41
2022-12-23T08:59:19.468Z,100886.56
2022-12-23T09:01:48.196Z,100878.53
2022-12-23T09:04:15.830Z,100876.84
2022-12-23T09:06:43.705Z,100867.34
2022-12-23T09:09:13.375Z,100869.59
2022-12-23T09:11:40.465Z,100871.25
2022-12-23T09:14:10.676Z,100840.69
2022-12-23T09:16:38.067Z,100860.31
2022-12-23T09:19:05.328Z,100857.06
2022-12-23T09:21:32.794Z,100845.72
2022-12-23T09:24:00.145Z,100837.16
2022-12-23T09:26:30.180Z,100848.78
2022-12-23T09:28:57.917Z,100848.56
2022-12-23T09:31:30.505Z,100840.81
2022-12-23T09:34:03.526Z,100858.97
2022-12-23T09:36:30.694Z,100846.78
2022-12-23T09:38:58.841Z,100857.38
2022-12-23T09:41:48.865Z,100865.19
2022-12-23T09:45:08.254Z,100849.47
2022-12-23T09:47:35.857Z,100836.69
2022-12-23T09:50:29.208Z,100851.44
2022-12-23T09:53:03.841Z,100843.94
2022-12-23T09:55:40.496Z,100837.31
2022-12-23T09:58:17.809Z,100839.84
2022-12-23T10:01:11.847Z,100839.56
2022-12-23T10:04:04.574Z,100840.13
2022-12-23T10:06:34.253Z,100836.22
2022-12-23T10:09:03.967Z,100830.69
2022-12-23T10:11:41.166Z,100828.75
2022-12-23T10:14:18.961Z,100831.25
2022-12-23T10:16:55.591Z,100823.75
2022-12-23T10:19:46.099Z,100822.91
2022-12-23T10:22:20.290Z,100829.03
2022-12-23T10:24:51.689Z,100816.25
2022-12-23T10:27:28.191Z,100809.88
2022-12-23T10:29:56.687Z,100821.25
2022-12-23T10:32:42.665Z,100814.31
2022-12-23T10:35:38.107Z,100808.19
2022-12-23T10:38:08.223Z,100822.34
2022-12-23T10:41:12.913Z,100827.31
2022-12-23T10:44:31.791Z,100821.53
2022-12-23T10:47:04.699Z,100821.25
2022-12-23T10:49:50.914Z,100814.84
2022-12-23T10:52:21.345Z,100822.91
2022-12-23T10:54:48.791Z,100822.91
2022-12-23T10:57:18.110Z,100817.06
2022-12-23T10:59:46.020Z,100815.69
2022-12-23T11:02:13.490Z,100805.13
2022-12-23T11:04:47.107Z,100812.88
2022-12-23T11:07:43.291Z,100794.81
2022-12-23T11:10:17.386Z,100799.81
2022-12-23T11:12:50.399Z,100810.66
2022-12-23T11:15:38.772Z,100800.06
2022-12-23T11:18:07.705Z,100796.72
2022-12-23T11:20:37.212Z,100793.94
2022-12-23T11:23:06.249Z,100795.66
2022-12-23T11:25:38.139Z,100789.50
2022-12-23T11:28:14.254Z,100790.63
2022-12-23T11:30:56.334Z,100786.19
2022-12-23T11:33:33.037Z,100776.19
2022-12-23T11:36:15.258Z,100789.53
2022-12-23T11:39:03.122Z,100785.66
2022-12-23T11:41:38.338Z,100774.56
2022-12-23T11:44:27.659Z,100782.31
2022-12-23T11:46:55.585Z,100770.31
2022-12-23T11:49:31.756Z,100784.19
2022-12-23T11:52:15.229Z,100780.59
2022-12-23T11:54:54.372Z,100783.94
2022-12-23T11:57:35.276Z,100785.06
2022-12-23T12:00:06.518Z,100792.28
2022-12-23T12:02:55.049Z,100775.59
2022-12-23T12:05:33.037Z,100790.59
2022-12-23T12:08:10.580Z,100788.94
2022-12-23T12:10:40.289Z,100783.13
2022-12-23T12:13:23.938Z,100770.63
2022-12-23T12:16:10.884Z,100776.19
2022-12-23T12:18:42.297Z,100779.00
2022-12-23T12:21:21.363Z,100782.34
2022-12-23T12:23:48.711Z,100784.56
2022-12-23T12:26:37.282Z,100790.97
2022-12-23T12:29:19.297Z,100786.19
2022-12-23T12:31:50.829Z,100789.53
2022-12-23T12:34:33.935Z,100791.75
2022-12-23T12:37:27.469Z,100799.22
2022-12-23T12:40:01.518Z,100788.38
2022-12-23T12:42:49.318Z,100789.72
2022-12-23T12:45:24.416Z,100779.50
2022-12-23T12:48:24.252Z,100785.06
2022-12-23T12:50:57.042Z,100792.88
2022-12-23T12:53:24.989Z,100787.88
2022-12-23T12:56:00.529Z,100793.72
2022-12-23T12:58:27.879Z,100795.13
2022-12-23T13:01:01.524Z,100797.06
2022-12-23T13:03:59.266Z,100786.22
2022-12-23T13:07:02.037Z,100797.91
2022-12-23T13:09:51.660Z,100791.25
2022-12-23T13:12:40.278Z,100801.22
2022-12-23T13:15:49.165Z,100795.66
2022-12-23T13:19:01.959Z,100788.13
2022-12-23T13:21:37.197Z,100798.09
2022-12-23T13:24:22.936Z,100798.28
2022-12-23T13:27:22.489Z,100798.88
2022-12-23T13:30:14.471Z,100803.19
2022-12-23T13:33:08.246Z,100796.44
2022-12-23T13:36:05.403Z,100789.69
2022-12-23T13:38:39.521Z,100800.25
2022-12-23T13:41:32.079Z,100807.97
2022-12-23T13:44:01.995Z,100811.00
2022-12-23T13:46:38.541Z,100806.66
2022-12-23T13:49:24.505Z,100801.97
2022-12-23T13:52:15.705Z,100803.63
2022-12-23T13:54:54.996Z,100812.47
2022-12-23T13:58:00.021Z,100800.75
2022-12-23T14:00:34.767Z,100792.84
2022-12-23T14:03:02.169Z,100805.28
2022-12-23T14:05:45.483Z,100803.88
2022-12-23T14:08:40.727Z,100809.63
2022-12-23T14:11:20.899Z,100803.25
2022-12-23T14:13:50.986Z,100808.19
2022-12-23T14:16:21.608Z,100798.75
2022-12-23T14:18:56.642Z,100805.34
2022-12-23T14:21:42.026Z,100806.34
2022-12-23T14:24:43.319Z,100814.53
2022-12-23T14:27:49.602Z,100815.09
2022-12-23T14:30:18.217Z,100808.53
2022-12-23T14:32:50.262Z,100808.06
2022-12-23T14:35:22.642Z,100799.69
2022-12-23T14:38:05.918Z,100811.97
2022-12-23T14:40:39.115Z,100809.69
2022-12-23T14:43:23.678Z,100803.03
2022-12-23T14:45:54.787Z,100804.66
2022-12-23T14:48:34.204Z,100806.34
2022-12-23T14:51:21.167Z,100801.09
2022-12-23T14:53:54.675Z,100806.69
2022-12-23T14:56:28.761Z,100789.50
2022-12-23T14:59:14.624Z,100804.75
2022-12-23T15:01:54.587Z,100787.63
2022-12-23T15:04:50.012Z,100803.75
2022-12-23T15:07:28.803Z,100797.06
2022-12-23T15:10:02.263Z,100798.69
2022-12-23T15:12:36.318Z,100816.38
2022-12-23T15:15:13.638Z,100806.34
2022-12-23T15:17:40.985Z,100811.59
2022-12-23T15:20:14.844Z,100817.97
2022-12-23T15:22:46.265Z,100816.81
2022-12-23T15:25:22.648Z,100817.13
2022-12-23T15:27:53.480Z,100814.56
2022-12-23T15:30:24.634Z,100817.97
2022-12-23T15:32:58.628Z,100805.47
2022-12-23T15:35:32.185Z,100813.25
2022-12-23T15:38:01.868Z,100812.31
2022-12-23T15:40:28.902Z,100819.91
2022-12-23T15:42:56.513Z,100819.53
2022-12-23T15:45:32.528Z,100822.88
2022-12-23T15:48:03.090Z,100835.47
2022-12-23T15:50:31.414Z,100835.34
2022-12-23T15:53:04.927Z,100834.78
2022-12-23T15:55:34.529Z,100826.41
2022-12-23T15:58:03.249Z,100824.66
2022-12-23T16:00:42.124Z,100818.59
2022-12-23T16:03:32.649Z,100827.16
2022-12-23T16:06:21.458Z,100833.47
2022-12-23T16:09:01.957Z,100824.34
2022-12-23T16:11:47.851Z,100846.22
2022-12-23T16:14:24.762Z,100846.13
2022-12-23T16:16:53.208Z,100842.69
2022-12-23T16:19:53.376Z,100835.34
2022-12-23T16:22:21.042Z,100834.31
2022-12-23T16:24:48.073Z,100836.56
2022-12-23T16:27:25.640Z,100835.00
2022-12-23T16:29:52.775Z,100828.75
2022-12-23T16:32:20.400Z,100832.94
2022-12-23T16:34:51.478Z,100835.00
2022-12-23T16:37:18.562Z,100832.81
2022-12-23T16:39:45.783Z,100826.53
2022-12-23T16:42:12.957Z,100825.06
2022-12-23T16:44:39.961Z,100821.72
2022-12-23T16:47:13.780Z,100818.41
2022-12-23T16:49:41.098Z,100791.41
2022-12-23T16:52:12.908Z,100822.56
2022-12-23T16:54:40.209Z,100802.53
2022-12-23T16:57:09.401Z,100826.00
2022-12-23T16:59:37.735Z,100819.13
2022-12-23T17:02:04.868Z,100804.91
2022-12-23T17:04:32.023Z,100804.28
2022-12-23T17:06:59.164Z,100818.88
2022-12-23T17:09:26.479Z,100820.03
2022-12-23T17:11:54.387Z,100811.19
2022-12-23T17:14:24.500Z,100802.91
2022-12-23T17:16:52.569Z,100811.00
2022-12-23T17:19:27.756Z,100814.22
2022-12-23T17:22:01.302Z,100799.22
2022-12-23T17:24:28.670Z,100799.69
2022-12-23T17:26:57.099Z,100814.72
2022-12-23T17:29:24.708Z,100801.41
2022-12-23T17:31:52.917Z,100797.50
2022-12-23T17:34:23.200Z,100796.00
2022-12-23T17:36:51.460Z,100813.97
2022-12-23T17:39:19.651Z,100804.22
2022-12-23T17:41:47.410Z,100810.94
2022-12-23T17:44:16.112Z,100811.78
2022-12-23T17:46:43.733Z,100800.72
2022-12-23T17:49:11.975Z,100813.50
2022-12-23T17:51:40.324Z,100809.66
2022-12-23T17:54:11.919Z,100809.19
2022-12-23T17:56:39.212Z,100801.31
2022-12-23T17:59:06.424Z,100801.31
2022-12-23T18:01:33.793Z,100809.81
2022-12-23T18:04:00.985Z,100811.16
2022-12-23T18:06:29.502Z,100806.69
2022-12-23T18:08:57.980Z,100814.72
2022-12-23T18:11:44.553Z,100811.13
2022-12-23T18:14:18.516Z,100812.34
2022-12-23T18:16:46.543Z,100806.22
2022-12-23T18:19:19.090Z,100811.59
2022-12-23T18:21:47.143Z,100812.88
2022-12-23T18:24:14.266Z,100804.59
2022-12-23T18:26:41.713Z,100808.72
2022-12-23T18:29:09.215Z,100803.44
2022-12-23T18:31:49.992Z,100805.06
2022-12-23T18:34:18.671Z,100787.44
2022-12-23T18:36:46.601Z,100791.09
2022-12-23T18:39:13.871Z,100797.03
2022-12-23T18:41:42.066Z,100799.34
2022-12-23T18:44:18.893Z,100815.88
2022-12-23T18:46:46.527Z,100799.78
2022-12-23T18:49:14.135Z,100800.63
2022-12-23T18:51:41.221Z,100806.97
2022-12-23T18:54:14.504Z,100809.81
2022-12-23T18:56:41.784Z,100793.75
2022-12-23T18:59:27.437Z,100814.25
2022-12-23T19:02:00.179Z,100804.28
2022-12-23T19:04:27.707Z,100814.13
2022-12-23T19:06:56.689Z,100815.47
2022-12-23T19:09:25.515Z,100812.78
2022-12-23T19:11:54.437Z,100811.34
2022-12-23T19:14:22.007Z,100810.38
2022-12-23T19:16:52.026Z,100813.59
2022-12-23T19:19:20.568Z,100807.75
2022-12-23T19:21:47.898Z,100814.13
2022-12-23T19:24:15.158Z,100812.16
2022-12-23T19:26:42.526Z,100808.50
2022-12-23T19:29:09.620Z,100815.94
2022-12-23T19:31:36.982Z,100802.81
2022-12-23T19:34:06.058Z,100818.88
2022-12-23T19:36:36.628Z,100813.34
2022-12-23T19:39:04.665Z,100804.47
2022-12-23T19:41:31.792Z,100818.63
2022-12-23T19:43:58.921Z,100817.69
2022-12-23T19:46:26.055Z,100806.19
2022-12-23T19:48:53.657Z,100810.47
2022-12-23T19:51:21.020Z,100813.00
2022-12-23T19:53:50.926Z,100829.13
2022-12-23T19:56:22.564Z,100834.78
2022-12-23T19:58:50.407Z,100820.94
2022-12-23T20:01:20.168Z,100825.41
2022-12-23T20:03:49.171Z,100826.16
2022-12-23T20:06:26.416Z,100825.78
2022-12-23T20:08:59.781Z,100835.03
2022-12-23T20:11:30.721Z,100827.34
2022-12-23T20:13:59.025Z,100833.22
2022-12-23T20:16:27.412Z,100820.28
2022-12-23T20:18:54.886Z,100831.38
2022-12-23T20:21:22.373Z,100835.50
2022-12-23T20:23:49.754Z,100830.47
2022-12-23T20:26:20.834Z,100828.69
2022-12-23T20:28:48.063Z,100826.16
2022-12-23T20:31:19.124Z,100813.34
2022-12-23T20:33:47.280Z,100819.31
2022-12-23T20:36:16.354Z,100809.66
2022-12-23T20:38:45.885Z,100822.47
2022-12-23T20:41:16.687Z,100813.41
2022-12-23T20:43:46.072Z,100814.72
2022-12-23T20:46:22.719Z,100815.91
2022-12-23T20:48:50.502Z,100813.00
2022-12-23T20:51:20.713Z,100821.16
2022-12-23T20:53:47.979Z,100818.31
2022-12-23T20:56:18.155Z,100818.41
2022-12-23T20:59:02.662Z,100821.63
2022-12-23T21:01:35.429Z,100831.22
2022-12-23T21:04:05.552Z,100827.28
2022-12-23T21:06:34.006Z,100824.03
2022-12-23T21:09:04.357Z,100815.41
2022-12-23T21:11:34.406Z,100830.25
2022-12-23T21:14:06.315Z,100828.81
2022-12-23T21:16:37.211Z,100820.44
2022-12-23T21:19:06.597Z,100819.25
2022-12-23T21:21:34.194Z,100822.97
2022-12-23T21:24:04.965Z,100810.63
2022-12-23T21:26:34.412Z,100817.53
2022-12-23T21:29:04.322Z,100819.38
2022-12-23T21:31:34.113Z,100823.84
2022-12-23T21:34:01.861Z,100819.66
2022-12-23T21:36:32.088Z,100821.34
2022-12-23T21:39:00.507Z,100829.00
2022-12-23T21:41:31.190Z,100810.50
2022-12-23T21:44:00.312Z,100825.25
2022-12-23T21:46:28.999Z,100823.50
2022-12-23T21:48:57.608Z,100822.88
2022-12-23T21:51:38.874Z,100820.19
2022-12-23T21:54:07.974Z,100814.69
2022-12-23T21:56:36.197Z,100826.22
2022-12-23T21:59:10.414Z,100827.47
2022-12-23T22:01:37.706Z,100809.44
2022-12-23T22:04:05.019Z,100808.50
2022-12-23T22:06:36.677Z,100805.38
2022-12-23T22:09:06.064Z,100823.50
2022-12-23T22:11:35.427Z,100803.41
2022-12-23T22:14:04.422Z,100816.59
2022-12-23T22:16:32.391Z,100806.88
2022-12-23T22:19:01.334Z,100808.09
2022-12-23T22:21:32.034Z,100819.69
2022-12-23T22:24:02.909Z,100809.41
2022-12-23T22:26:32.625Z,100809.88
2022-12-23T22:29:01.702Z,100812.41
2022-12-23T22:31:34.524Z,100811.56
2022-12-23T22:34:02.285Z,100806.66
2022-12-23T22:36:29.836Z,100802.13
2022-12-23T22:38:59.527Z,100790.84
2022-12-23T22:41:28.135Z,100802.56
2022-12-23T22:43:56.244Z,100801.72
2022-12-23T22:46:24.799Z,100795.09
2022-12-23T22:48:53.220Z,100786.75
2022-12-23T22:51:26.885Z,100789.13
2022-12-23T22:53:54.790Z,100783.59
2022-12-23T22:56:23.470Z,100802.41
2022-12-23T22:58:51.198Z,100799.50
2022-12-23T23:01:33.674Z,100792.63
2022-12-23T23:04:02.899Z,100795.25
2022-12-23T23:06:39.718Z,100793.47
2022-12-23T23:09:09.601Z,100800.25
2022-12-23T23:11:37.027Z,100797.81
2022-12-23T23:14:04.255Z,100799.28
2022-12-23T23:16:32.021Z,100798.94
2022-12-23T23:19:00.138Z,100780.94
2022-12-23T23:21:27.475Z,100785.50
2022-12-23T23:23:55.229Z,100792.16
2022-12-23T23:26:27.081Z,100798.56
2022-12-23T23:28:56.323Z,100799.78
2022-12-23T23:34:11.360Z,100797.03
2022-12-23T23:36:39.648Z,100791.69
2022-12-23T23:39:06.816Z,100790.16
2022-12-23T23:41:34.468Z,100804.78
2022-12-23T23:44:01.572Z,100805.44
2022-12-23T23:46:29.058Z,100788.81
2022-12-23T23:48:56.147Z,100791.88
2022-12-23T23:51:23.430Z,100798.09
2022-12-23T23:53:50.518Z,100793.84
2022-12-23T23:56:23.842Z,100791.47
2022-12-23T23:58:52.795Z,100781.09
